createdAt,value
2019-05-17T00:00:47.493Z,0.70
2019-05-17T00:03:28.901Z,0.43
2019-05-17T00:06:03.020Z,0.80
2019-05-17T00:08:58.109Z,0.50
2019-05-17T00:15:27.318Z,1.47
2019-05-17T00:21:47.316Z,1.00
2019-05-17T00:24:23.745Z,0.50
2019-05-17T00:27:44.483Z,1.27
2019-05-17T00:33:28.945Z,0.60
2019-05-17T00:36:30.163Z,2.17
2019-05-17T00:39:09.094Z,1.00
2019-05-17T00:41:42.264Z,0.60
2019-05-17T00:44:16.818Z,1.17
2019-05-17T00:46:52.299Z,1.23
2019-05-17T00:49:26.780Z,0.63
2019-05-17T00:52:07.022Z,0.77
2019-05-17T00:54:46.961Z,0.50
2019-05-17T00:57:23.830Z,0.80
2019-05-17T01:02:51.714Z,0.60
2019-05-17T01:05:29.092Z,1.13
2019-05-17T01:08:06.898Z,2.07
2019-05-17T01:10:43.920Z,0.60
2019-05-17T01:13:21.011Z,1.00
2019-05-17T01:15:53.863Z,0.70
2019-05-17T01:18:31.697Z,0.73
2019-05-17T01:21:12.979Z,0.90
2019-05-17T01:23:51.141Z,1.03
2019-05-17T01:26:32.965Z,0.73
2019-05-17T01:29:06.732Z,0.80
2019-05-17T01:31:51.106Z,0.70
2019-05-17T01:34:17.139Z,1.00
2019-05-17T01:36:56.937Z,0.80
2019-05-17T01:39:37.483Z,0.67
2019-05-17T01:42:11.124Z,0.73
2019-05-17T01:44:56.785Z,1.10
2019-05-17T01:47:32.819Z,1.03
2019-05-17T01:50:09.100Z,1.67
2019-05-17T01:52:53.148Z,0.87
2019-05-17T01:55:31.766Z,0.73
2019-05-17T01:58:07.249Z,0.90
2019-05-17T02:00:47.724Z,1.10
2019-05-17T02:03:22.642Z,1.97
2019-05-17T02:05:56.839Z,1.30
2019-05-17T02:08:37.243Z,1.57
2019-05-17T02:11:20.044Z,0.90
2019-05-17T02:13:59.128Z,0.83
2019-05-17T02:16:34.308Z,0.80
2019-05-17T02:19:11.104Z,1.50
2019-05-17T02:22:10.962Z,0.90
2019-05-17T02:24:40.742Z,1.17
2019-05-17T02:27:14.142Z,1.50
2019-05-17T02:30:07.771Z,0.80
2019-05-17T02:33:15.211Z,1.37
2019-05-17T02:35:58.182Z,1.00
2019-05-17T02:38:34.397Z,1.30
2019-05-17T02:41:15.405Z,1.43
2019-05-17T02:43:56.413Z,1.40
2019-05-17T02:46:33.539Z,1.30
2019-05-17T02:49:35.786Z,0.97
2019-05-17T02:52:12.327Z,0.87
2019-05-17T02:54:55.935Z,0.70
2019-05-17T02:57:34.876Z,0.80
2019-05-17T03:02:58.970Z,1.13
2019-05-17T03:05:34.031Z,0.87
2019-05-17T03:08:15.306Z,1.10
2019-05-17T03:11:13.194Z,0.50
2019-05-17T03:13:54.517Z,1.33
2019-05-17T03:16:33.568Z,1.70
2019-05-17T03:19:32.779Z,1.10
2019-05-17T03:22:13.326Z,0.90
2019-05-17T03:25:07.434Z,0.80
2019-05-17T03:27:57.197Z,1.30
2019-05-17T03:31:16.735Z,1.20
2019-05-17T03:33:37.835Z,1.07
2019-05-17T03:36:17.534Z,0.67
2019-05-17T03:38:55.609Z,0.87
2019-05-17T03:42:12.979Z,1.03
2019-05-17T03:44:57.208Z,1.27
2019-05-17T03:47:38.968Z,1.40
2019-05-17T03:50:38.208Z,0.90
2019-05-17T03:53:52.916Z,1.40
2019-05-17T03:56:56.038Z,2.07
2019-05-17T04:01:07.725Z,1.47
2019-05-17T04:04:29.234Z,2.07
2019-05-17T04:07:13.038Z,0.60
2019-05-17T04:09:48.804Z,1.43
2019-05-17T04:12:26.068Z,1.43
2019-05-17T04:15:13.487Z,1.63
2019-05-17T04:18:04.770Z,1.87
2019-05-17T04:22:24.995Z,1.13
2019-05-17T04:25:29.214Z,1.00
2019-05-17T04:28:23.035Z,1.40
2019-05-17T04:31:24.023Z,1.33
2019-05-17T04:34:13.533Z,0.87
2019-05-17T04:36:47.391Z,2.17
2019-05-17T04:39:32.657Z,1.63
2019-05-17T04:43:13.572Z,1.40
2019-05-17T04:45:53.788Z,1.60
2019-05-17T04:48:32.698Z,1.20
2019-05-17T04:51:32.547Z,1.07
2019-05-17T04:54:05.091Z,1.20
2019-05-17T04:57:23.424Z,1.40
2019-05-17T05:14:26.214Z,2.63
2019-05-17T05:17:02.373Z,2.70
2019-05-17T05:19:35.808Z,3.03
2019-05-17T05:22:27.285Z,2.27
2019-05-17T05:25:03.271Z,2.07
2019-05-17T05:28:43.077Z,1.93
2019-05-17T05:31:23.131Z,1.60
2019-05-17T05:34:21.459Z,1.93
2019-05-17T05:36:56.004Z,1.93
2019-05-17T05:39:36.852Z,2.17
2019-05-17T05:42:14.007Z,3.37
2019-05-17T05:44:55.482Z,1.80
2019-05-17T05:47:27.895Z,1.97
2019-05-17T05:50:08.259Z,1.53
2019-05-17T05:52:58.032Z,3.70
2019-05-17T05:55:32.191Z,3.93
2019-05-17T06:06:26.911Z,2.17
2019-05-17T06:08:58.069Z,2.50
2019-05-17T06:11:46.045Z,2.63
2019-05-17T06:14:21.598Z,1.60
2019-05-17T06:16:53.099Z,2.70
2019-05-17T06:19:31.533Z,3.23
2019-05-17T06:22:06.934Z,3.50
2019-05-17T06:24:38.174Z,2.17
2019-05-17T06:27:12.205Z,2.07
2019-05-17T06:30:12.297Z,3.03
2019-05-17T06:32:53.430Z,3.57
2019-05-17T06:35:42.372Z,1.83
2019-05-17T06:38:22.496Z,2.53
2019-05-17T06:41:05.128Z,3.03
2019-05-17T06:44:07.770Z,2.40
2019-05-17T06:46:57.280Z,2.40
2019-05-17T06:49:35.948Z,3.47
2019-05-17T06:52:27.933Z,3.07
2019-05-17T06:55:26.139Z,1.83
2019-05-17T06:58:04.825Z,2.53
2019-05-17T07:02:52.782Z,1.90
2019-05-17T07:05:42.893Z,3.17
2019-05-17T07:08:30.461Z,3.00
2019-05-17T07:11:10.126Z,2.67
2019-05-17T07:17:15.536Z,1.63
2019-05-17T07:19:46.610Z,3.00
2019-05-17T07:22:21.246Z,3.20
2019-05-17T07:24:52.736Z,3.77
2019-05-17T07:27:41.125Z,2.43
2019-05-17T07:30:01.221Z,2.77
2019-05-17T07:32:32.531Z,2.07
2019-05-17T07:35:10.405Z,2.70
2019-05-17T07:37:39.702Z,1.43
2019-05-17T07:40:13.397Z,2.40
2019-05-17T07:42:51.076Z,1.73
2019-05-17T07:45:24.599Z,1.73
2019-05-17T07:48:05.087Z,2.00
2019-05-17T07:50:33.902Z,2.53
2019-05-17T07:53:05.515Z,1.67
2019-05-17T07:55:36.821Z,1.93
2019-05-17T07:58:21.455Z,2.57
2019-05-17T08:00:54.399Z,2.27
2019-05-17T08:03:34.210Z,1.77
2019-05-17T08:06:30.513Z,1.37
2019-05-17T08:13:46.327Z,1.07
2019-05-17T08:16:26.432Z,0.93
2019-05-17T08:19:49.651Z,1.63
2019-05-17T08:23:40.861Z,2.33
2019-05-17T08:26:13.458Z,2.57
2019-05-17T08:28:57.208Z,2.23
2019-05-17T08:31:31.226Z,2.07
2019-05-17T08:34:14.363Z,1.63
2019-05-17T08:36:52.819Z,1.70
2019-05-17T08:39:30.245Z,1.83
2019-05-17T08:42:25.737Z,1.93
2019-05-17T09:43:45.797Z,1.73
2019-05-17T09:47:33.858Z,1.60
2019-05-17T10:28:20.545Z,2.30
2019-05-17T10:31:01.989Z,2.90
2019-05-17T10:36:56.009Z,1.43
2019-05-17T10:40:02.859Z,1.57
2019-05-17T10:43:12.750Z,1.60
2019-05-17T10:46:40.691Z,1.00
2019-05-17T10:49:24.418Z,1.27
2019-05-17T10:52:23.368Z,2.43
2019-05-17T10:55:42.161Z,1.53
2019-05-17T10:58:49.432Z,1.23
2019-05-17T11:03:20.987Z,1.50
2019-05-17T11:05:43.409Z,1.37
2019-05-17T11:08:52.397Z,1.80
2019-05-17T11:11:43.985Z,1.33
2019-05-17T11:14:23.469Z,1.23
2019-05-17T11:17:32.921Z,2.27
2019-05-17T11:21:27.324Z,1.93
2019-05-17T11:27:39.232Z,1.60
2019-05-17T11:50:29.304Z,1.17
2019-05-17T12:02:05.114Z,1.03
2019-05-17T12:06:21.932Z,1.20
2019-05-17T12:21:59.338Z,1.13
2019-05-17T12:35:11.236Z,0.80
2019-05-17T12:42:47.811Z,1.10
2019-05-17T12:47:04.477Z,1.47
2019-05-17T12:52:38.139Z,0.73
2019-05-17T13:05:03.698Z,1.13
2019-05-17T13:17:09.940Z,1.67
2019-05-17T13:32:08.086Z,1.13
2019-05-17T13:44:49.958Z,1.20
2019-05-17T13:49:01.393Z,0.80
2019-05-17T14:01:34.045Z,0.63
2019-05-17T14:11:27.805Z,0.97
2019-05-17T14:14:51.594Z,1.10
2019-05-17T14:18:11.694Z,0.90
2019-05-17T14:29:57.502Z,1.27
2019-05-17T14:33:21.908Z,0.77
2019-05-17T14:47:46.463Z,0.60
2019-05-17T14:53:15.786Z,1.10
2019-05-17T14:55:55.729Z,0.70
2019-05-17T14:58:59.172Z,1.63
2019-05-17T15:06:59.464Z,0.73
2019-05-17T15:10:12.588Z,0.30
2019-05-17T15:16:47.211Z,0.37
2019-05-17T15:19:33.967Z,0.27
2019-05-17T15:33:12.857Z,0.70
2019-05-17T15:36:34.261Z,0.80
2019-05-17T15:39:25.015Z,0.90
2019-05-17T15:42:23.555Z,1.13
2019-05-17T15:44:55.866Z,1.27
2019-05-17T15:47:43.434Z,0.83
2019-05-17T15:50:18.855Z,0.20
2019-05-17T15:52:54.305Z,0.50
2019-05-17T15:55:33.881Z,0.77
2019-05-17T15:58:10.232Z,0.20
2019-05-17T16:00:58.695Z,0.60
2019-05-17T16:03:33.837Z,0.80
2019-05-17T16:07:02.344Z,0.43
2019-05-17T16:09:55.975Z,0.53
2019-05-17T16:12:35.872Z,0.57
2019-05-17T16:15:26.524Z,0.80
2019-05-17T16:18:06.538Z,0.90
2019-05-17T16:20:44.485Z,0.87
2019-05-17T16:23:21.261Z,0.67
2019-05-17T16:25:54.225Z,0.40
2019-05-17T16:28:34.280Z,0.30
2019-05-17T16:31:07.512Z,0.30
2019-05-17T16:34:18.121Z,0.60
2019-05-17T16:36:56.311Z,0.33
2019-05-17T16:39:59.723Z,0.30
2019-05-17T16:42:36.387Z,0.47
2019-05-17T16:45:34.360Z,0.40
2019-05-17T16:48:19.002Z,0.77
2019-05-17T16:51:12.773Z,0.77
2019-05-17T16:53:53.727Z,0.50
2019-05-17T16:56:36.877Z,0.50
2019-05-17T17:03:08.983Z,0.47
2019-05-17T17:05:57.186Z,0.30
2019-05-17T17:08:21.025Z,0.50
2019-05-17T17:19:02.662Z,0.67
2019-05-17T17:21:34.544Z,0.73
2019-05-17T17:24:05.486Z,0.40
2019-05-17T17:26:36.033Z,0.53
2019-05-17T17:29:09.923Z,0.20
2019-05-17T17:31:40.777Z,0.37
2019-05-17T17:34:11.414Z,0.37
2019-05-17T17:36:42.337Z,0.60
2019-05-17T17:39:13.030Z,0.53
2019-05-17T17:41:43.769Z,0.30
2019-05-17T17:44:14.284Z,1.47
2019-05-17T17:46:45.024Z,0.40
2019-05-17T17:49:17.910Z,0.53
2019-05-17T17:51:48.488Z,0.47
2019-05-17T17:54:19.342Z,0.83
2019-05-17T17:56:50.060Z,4.53
2019-05-17T17:59:20.851Z,1.47
2019-05-17T18:01:51.304Z,0.80
2019-05-17T18:04:23.368Z,0.70
2019-05-17T18:06:54.156Z,0.57
2019-05-17T18:09:26.019Z,1.40
2019-05-17T18:11:58.560Z,0.63
2019-05-17T18:14:29.500Z,0.33
2019-05-17T18:17:00.951Z,0.60
2019-05-17T18:19:33.222Z,0.70
2019-05-17T18:22:05.651Z,1.23
2019-05-17T18:24:39.169Z,0.77
2019-05-17T18:27:13.235Z,0.30
2019-05-17T18:29:44.470Z,1.00
2019-05-17T18:32:15.094Z,0.60
2019-05-17T18:34:47.307Z,0.57
2019-05-17T18:37:18.047Z,0.90
2019-05-17T18:39:49.575Z,0.77
2019-05-17T18:42:20.539Z,0.50
2019-05-17T18:44:51.989Z,0.40
2019-05-17T18:47:22.832Z,0.60
2019-05-17T18:49:53.849Z,0.40
2019-05-17T18:52:24.419Z,0.73
2019-05-17T18:54:56.305Z,0.67
2019-05-17T18:57:33.032Z,0.43
2019-05-17T19:13:32.438Z,1.17
2019-05-17T19:16:04.925Z,2.07
2019-05-17T19:18:35.070Z,1.33
2019-05-17T19:21:05.660Z,0.40
2019-05-17T19:23:36.074Z,0.83
2019-05-17T19:26:07.394Z,0.70
2019-05-17T19:28:37.775Z,1.20
2019-05-17T19:31:08.392Z,1.20
2019-05-17T19:33:38.775Z,0.80
2019-05-17T19:36:09.240Z,1.00
2019-05-17T19:38:39.654Z,1.23
2019-05-17T19:41:09.983Z,0.63
2019-05-17T19:43:40.789Z,0.50
2019-05-17T19:46:11.085Z,0.30
2019-05-17T19:48:41.553Z,0.70
2019-05-17T19:51:11.856Z,0.63
2019-05-17T19:53:42.351Z,0.60
2019-05-17T19:56:12.865Z,0.30
2019-05-17T19:58:43.308Z,0.53
2019-05-17T20:01:14.177Z,0.47
2019-05-17T20:03:44.491Z,0.50
2019-05-17T20:06:14.855Z,0.83
2019-05-17T20:08:45.180Z,0.30
2019-05-17T20:11:15.730Z,0.37
2019-05-17T20:13:46.189Z,1.10
2019-05-17T20:16:16.554Z,0.53
2019-05-17T20:18:47.119Z,1.13
2019-05-17T20:21:17.463Z,0.93
2019-05-17T20:23:47.794Z,0.63
2019-05-17T20:26:18.185Z,0.43
2019-05-17T20:28:48.538Z,0.87
2019-05-17T20:31:18.942Z,1.00
2019-05-17T20:33:49.387Z,0.43
2019-05-17T20:36:19.764Z,0.50
2019-05-17T20:38:50.114Z,0.60
2019-05-17T20:41:20.377Z,0.60
2019-05-17T20:43:50.662Z,0.47
2019-05-17T21:02:49.076Z,0.77
2019-05-17T21:05:20.910Z,0.63
2019-05-17T21:07:51.834Z,0.80
2019-05-17T21:10:22.080Z,0.77
2019-05-17T21:12:52.631Z,0.63
2019-05-17T21:15:23.158Z,1.00
2019-05-17T21:17:53.432Z,0.23
2019-05-17T21:20:23.800Z,0.57
2019-05-17T21:22:54.123Z,0.43
2019-05-17T21:25:24.578Z,0.83
2019-05-17T21:27:54.870Z,0.77
2019-05-17T21:30:25.286Z,0.90
2019-05-17T21:32:55.695Z,0.60
2019-05-17T21:35:26.022Z,1.40
2019-05-17T21:37:56.404Z,0.30
2019-05-17T21:40:27.085Z,1.23
2019-05-17T21:42:57.582Z,0.60
2019-05-17T21:45:27.912Z,0.90
2019-05-17T21:47:58.601Z,0.70
2019-05-17T21:50:28.893Z,1.13
2019-05-17T21:52:59.388Z,0.90
2019-05-17T21:55:29.650Z,1.73
2019-05-17T21:57:59.979Z,0.63
2019-05-17T22:01:25.264Z,0.57
2019-05-17T22:03:55.770Z,0.53
2019-05-17T22:06:26.240Z,0.40
2019-05-17T22:08:56.690Z,0.47
2019-05-17T22:11:27.248Z,0.53
2019-05-17T22:13:57.676Z,0.67
2019-05-17T22:16:28.140Z,0.30
2019-05-17T22:18:58.529Z,0.87
2019-05-17T22:21:28.817Z,0.47
2019-05-17T22:23:59.418Z,0.93
2019-05-17T22:26:29.691Z,0.70
2019-05-17T22:29:00.121Z,0.90
2019-05-17T22:31:30.484Z,0.90
2019-05-17T22:34:01.115Z,0.47
2019-05-17T22:36:31.435Z,1.23
2019-05-17T22:39:01.958Z,0.53
2019-05-17T22:41:32.291Z,0.93
2019-05-17T22:44:03.440Z,0.60
2019-05-17T22:46:36.444Z,0.73
2019-05-17T22:49:06.089Z,1.20
2019-05-17T22:51:36.419Z,0.60
2019-05-17T22:54:06.969Z,1.13
2019-05-17T22:56:37.424Z,0.50
2019-05-17T23:02:45.478Z,0.60
2019-05-17T23:05:16.119Z,1.13
2019-05-17T23:07:46.895Z,0.67
2019-05-17T23:10:17.712Z,1.23
2019-05-17T23:12:48.306Z,0.97
2019-05-17T23:15:19.038Z,1.63
2019-05-17T23:17:49.559Z,0.80
2019-05-17T23:20:20.060Z,1.63
2019-05-17T23:22:50.406Z,1.07
2019-05-17T23:25:20.819Z,0.87
2019-05-17T23:27:51.313Z,1.13
2019-05-17T23:30:21.825Z,0.70
2019-05-17T23:32:52.180Z,1.40
2019-05-17T23:35:22.841Z,1.07
2019-05-17T23:37:53.300Z,0.87
2019-05-17T23:40:23.954Z,1.40
2019-05-17T23:42:54.345Z,1.40
2019-05-17T23:45:24.780Z,0.93
2019-05-17T23:47:55.183Z,0.87
2019-05-17T23:50:25.709Z,1.00
2019-05-17T23:52:56.181Z,0.50
2019-05-17T23:55:26.910Z,1.07
2019-05-17T23:57:57.197Z,1.63
